Juneau, WI

2:14 AM CST on January 22, 2017 (GMT -0600)
Dodge County | | Change Station
Active Advisory: Dense Fog Advisory

Elev 935 ft 43.43 °N, 88.70 °W | Updated 19 minutes ago

Fog
Fog
38 °F
Feels Like 38 °F
N
0
Wind Variable Wind from North

Today
High -- | Low -- °F
--% Chance of Precip.
Yesterday
High -- | Low -- °F
Precip. -- in
Pressure 29.57 in
Visibility 0.2 miles
Clouds Overcast 300 ft
Dew Point 37 °F
Humidity 99%
Rainfall 0.00 in
Snow Depth Not available.
7:19 AM 4:53 PM
Waning Crescent, 28% visible
METAR KUNU 220755Z AUTO 00000KT M1/4SM FG OVC003 03/03 A2957 RMK AO2 T00310030
Pressure 29.57 in
Visibility 0.2 miles
Clouds Overcast 300 ft
Dew Point 37 °F
Humidity 99%
Rainfall 0.00 in
Snow Depth Not available.
7:19 AM 4:53 PM
Waning Crescent, 28% visible
METAR KUNU 220755Z AUTO 00000KT M1/4SM FG OVC003 03/03 A2957 RMK AO2 T00310030

Get Your Daily Forecast Email!

Thanks for signing up!

Be on the lookout for a verification email in your inbox.

You'll start receiving the daily forecast at 8 AM.

×

10-Day Weather Forecast

Almanac

Astronomy

Jan. 22, 2017 Rise Set
Actual Time
Civil Twilight
Nautical Twilight
Astronomical Twilight
Moon
Length of Visible Light
Length of Day
Tomorrow will be .
, % of the Moon is Illuminated

Today's Extremes

State Highs State Lows

Community

WunderPhotos

Upload Photos

1,962,540 photos uploaded!

WunderBlog® & News

Nearby

Air Quality

  Air Quality AQ Index Pollutant
Not available.

Snow Depth

Station Depth Elevation

Earthquake Activity

City Distance Mag. Time & Date
Minimum magnitude displayed is 2.5.

Coastal Water Temperatures

Place Temperature

Stations

Nearby Weather Stations

Station Location Temp. Windchill Dew Point Humidity Wind Precip. Elev Updated Type
                   

Watches & Warnings

Dense Fog Advisory
Issued: 9:17 PM CST Jan. 21, 2017 – National Weather Service

... Dense fog advisory remains in effect until noon CST Sunday...

A dense fog advisory remains in effect until noon CST Sunday.

* Timing... areas of dense fog will develop overnight and continue into
Sunday morning.

* Visibility... falling to around 1/4 mile or less in dense fog.

* Impacts... severely reduced visibility will lead to poor
driving conditions. Slow down and drive with caution.

Precautionary/preparedness actions...

A dense fog advisory means visibilities will frequently be
reduced to less than one quarter mile. If driving... slow down...
use your headlights... and leave plenty of distance ahead of you.


Kavinsky